sensor_id;sensor_type;location;lat;lon;timestamp;temperature;humidity
43673;DHT22;41723;49.326;8.430;2023-05-10T00:02:23;14.80;99.90
43673;DHT22;41723;49.326;8.430;2023-05-10T00:04:49;14.80;99.90
43673;DHT22;41723;49.326;8.430;2023-05-10T00:07:15;14.80;99.90
43673;DHT22;41723;49.326;8.430;2023-05-10T00:09:42;14.80;99.90
43673;DHT22;41723;49.326;8.430;2023-05-10T00:12:08;14.80;99.90
43673;DHT22;41723;49.326;8.430;2023-05-10T00:14:34;14.80;99.90
43673;DHT22;41723;49.326;8.430;2023-05-10T00:17:00;14.80;99.90
43673;DHT22;41723;49.326;8.430;2023-05-10T00:19:26;14.80;99.90
43673;DHT22;41723;49.326;8.430;2023-05-10T00:21:51;14.80;99.90
43673;DHT22;41723;49.326;8.430;2023-05-10T00:24:17;14.80;99.90
43673;DHT22;41723;49.326;8.430;2023-05-10T00:26:43;14.80;99.90
43673;DHT22;41723;49.326;8.430;2023-05-10T00:29:08;14.80;99.90
43673;DHT22;41723;49.326;8.430;2023-05-10T00:31:34;14.80;99.90
43673;DHT22;41723;49.326;8.430;2023-05-10T00:33:59;14.80;99.90
43673;DHT22;41723;49.326;8.430;2023-05-10T00:36:25;14.90;99.90
43673;DHT22;41723;49.326;8.430;2023-05-10T00:38:51;14.80;99.90
43673;DHT22;41723;49.326;8.430;2023-05-10T00:41:17;14.80;99.90
43673;DHT22;41723;49.326;8.430;2023-05-10T00:43:43;14.80;99.90
43673;DHT22;41723;49.326;8.430;2023-05-10T00:46:09;14.80;99.90
43673;DHT22;41723;49.326;8.430;2023-05-10T00:48:35;14.80;99.90
43673;DHT22;41723;49.326;8.430;2023-05-10T00:51:01;14.80;99.90
43673;DHT22;41723;49.326;8.430;2023-05-10T00:53:26;14.80;99.90
43673;DHT22;41723;49.326;8.430;2023-05-10T00:55:52;14.70;99.90
43673;DHT22;41723;49.326;8.430;2023-05-10T00:58:18;14.70;99.90
43673;DHT22;41723;49.326;8.430;2023-05-10T01:00:43;14.60;99.90
43673;DHT22;41723;49.326;8.430;2023-05-10T01:03:11;14.70;99.90
43673;DHT22;41723;49.326;8.430;2023-05-10T01:05:49;14.60;99.90
43673;DHT22;41723;49.326;8.430;2023-05-10T01:08:15;14.70;99.90
43673;DHT22;41723;49.326;8.430;2023-05-10T01:10:41;14.60;99.90
43673;DHT22;41723;49.326;8.430;2023-05-10T01:13:07;14.60;99.90
43673;DHT22;41723;49.326;8.430;2023-05-10T01:15:32;14.60;99.90
43673;DHT22;41723;49.326;8.430;2023-05-10T01:17:58;14.70;99.90
43673;DHT22;41723;49.326;8.430;2023-05-10T01:20:24;14.70;99.90
43673;DHT22;41723;49.326;8.430;2023-05-10T01:35:45;14.60;99.90
43673;DHT22;41723;49.326;8.430;2023-05-10T01:38:27;14.50;99.90
43673;DHT22;41723;49.326;8.430;2023-05-10T01:43:35;14.60;99.90
43673;DHT22;41723;49.326;8.430;2023-05-10T01:46:04;14.60;99.90
43673;DHT22;41723;49.326;8.430;2023-05-10T01:48:36;14.60;99.90
43673;DHT22;41723;49.326;8.430;2023-05-10T01:51:03;14.50;99.90
43673;DHT22;41723;49.326;8.430;2023-05-10T01:53:30;14.60;99.90
43673;DHT22;41723;49.326;8.430;2023-05-10T01:55:56;14.50;99.90
43673;DHT22;41723;49.326;8.430;2023-05-10T01:58:25;14.50;99.90
43673;DHT22;41723;49.326;8.430;2023-05-10T02:00:52;14.50;99.90
43673;DHT22;41723;49.326;8.430;2023-05-10T02:03:20;14.50;99.90
43673;DHT22;41723;49.326;8.430;2023-05-10T02:05:48;14.60;99.90
43673;DHT22;41723;49.326;8.430;2023-05-10T02:08:14;14.60;99.90
43673;DHT22;41723;49.326;8.430;2023-05-10T02:10:41;14.70;99.90
43673;DHT22;41723;49.326;8.430;2023-05-10T02:13:07;14.60;99.90
43673;DHT22;41723;49.326;8.430;2023-05-10T02:15:33;14.70;99.90
43673;DHT22;41723;49.326;8.430;2023-05-10T02:17:59;14.60;99.90
43673;DHT22;41723;49.326;8.430;2023-05-10T02:20:25;14.70;99.90
43673;DHT22;41723;49.326;8.430;2023-05-10T02:22:51;14.70;99.90
43673;DHT22;41723;49.326;8.430;2023-05-10T02:25:19;14.70;99.90
43673;DHT22;41723;49.326;8.430;2023-05-10T02:27:46;14.70;99.90
43673;DHT22;41723;49.326;8.430;2023-05-10T02:30:12;14.70;99.90
43673;DHT22;41723;49.326;8.430;2023-05-10T02:32:39;14.60;99.90
43673;DHT22;41723;49.326;8.430;2023-05-10T02:35:05;14.70;99.90
43673;DHT22;41723;49.326;8.430;2023-05-10T02:37:31;14.70;99.90
43673;DHT22;41723;49.326;8.430;2023-05-10T02:39:57;14.70;99.90
43673;DHT22;41723;49.326;8.430;2023-05-10T02:42:24;14.70;99.90
43673;DHT22;41723;49.326;8.430;2023-05-10T02:44:52;14.70;99.90
43673;DHT22;41723;49.326;8.430;2023-05-10T02:47:18;14.80;99.90
43673;DHT22;41723;49.326;8.430;2023-05-10T02:49:44;14.70;99.90
43673;DHT22;41723;49.326;8.430;2023-05-10T02:52:09;14.70;99.90
43673;DHT22;41723;49.326;8.430;2023-05-10T02:54:54;14.60;99.90
43673;DHT22;41723;49.326;8.430;2023-05-10T02:57:27;14.50;99.90
43673;DHT22;41723;49.326;8.430;2023-05-10T02:59:54;14.50;99.90
43673;DHT22;41723;49.326;8.430;2023-05-10T03:02:20;14.50;99.90
43673;DHT22;41723;49.326;8.430;2023-05-10T03:04:45;14.40;99.90
43673;DHT22;41723;49.326;8.430;2023-05-10T03:07:11;14.40;99.90
43673;DHT22;41723;49.326;8.430;2023-05-10T03:09:37;14.40;99.90
43673;DHT22;41723;49.326;8.430;2023-05-10T03:12:27;14.40;99.90
43673;DHT22;41723;49.326;8.430;2023-05-10T03:20:29;14.30;99.90
43673;DHT22;41723;49.326;8.430;2023-05-10T03:23:02;14.40;99.90
43673;DHT22;41723;49.326;8.430;2023-05-10T03:25:31;14.40;99.90
43673;DHT22;41723;49.326;8.430;2023-05-10T03:27:56;14.50;99.90
43673;DHT22;41723;49.326;8.430;2023-05-10T03:30:25;14.50;99.90
43673;DHT22;41723;49.326;8.430;2023-05-10T03:32:50;14.60;99.90
43673;DHT22;41723;49.326;8.430;2023-05-10T03:35:17;14.50;99.90
43673;DHT22;41723;49.326;8.430;2023-05-10T03:37:43;14.50;99.90
43673;DHT22;41723;49.326;8.430;2023-05-10T03:40:09;14.60;99.90
43673;DHT22;41723;49.326;8.430;2023-05-10T03:42:37;14.50;99.90
43673;DHT22;41723;49.326;8.430;2023-05-10T03:45:03;14.50;99.90
43673;DHT22;41723;49.326;8.430;2023-05-10T03:47:28;14.50;99.90
43673;DHT22;41723;49.326;8.430;2023-05-10T03:49:55;14.40;99.90
43673;DHT22;41723;49.326;8.430;2023-05-10T03:52:21;14.40;99.90
43673;DHT22;41723;49.326;8.430;2023-05-10T03:54:47;14.40;99.90
43673;DHT22;41723;49.326;8.430;2023-05-10T03:57:12;14.40;99.90
43673;DHT22;41723;49.326;8.430;2023-05-10T03:59:38;14.40;99.90
43673;DHT22;41723;49.326;8.430;2023-05-10T04:02:04;14.40;99.90
43673;DHT22;41723;49.326;8.430;2023-05-10T04:04:29;14.30;99.90
43673;DHT22;41723;49.326;8.430;2023-05-10T04:06:55;14.30;99.90
43673;DHT22;41723;49.326;8.430;2023-05-10T04:09:21;14.30;99.90
43673;DHT22;41723;49.326;8.430;2023-05-10T04:11:46;14.20;99.90
43673;DHT22;41723;49.326;8.430;2023-05-10T04:14:12;14.20;99.90
43673;DHT22;41723;49.326;8.430;2023-05-10T04:16:37;14.10;99.90
43673;DHT22;41723;49.326;8.430;2023-05-10T04:19:03;14.10;99.90
43673;DHT22;41723;49.326;8.430;2023-05-10T04:21:29;14.10;99.90
43673;DHT22;41723;49.326;8.430;2023-05-10T04:23:55;14.10;99.90
43673;DHT22;41723;49.326;8.430;2023-05-10T04:26:21;14.10;99.90
43673;DHT22;41723;49.326;8.430;2023-05-10T04:28:47;14.10;99.90
43673;DHT22;41723;49.326;8.430;2023-05-10T04:31:13;14.10;99.90
43673;DHT22;41723;49.326;8.430;2023-05-10T04:33:38;14.10;99.90
43673;DHT22;41723;49.326;8.430;2023-05-10T04:36:04;14.10;99.90
43673;DHT22;41723;49.326;8.430;2023-05-10T04:38:30;14.10;99.90
43673;DHT22;41723;49.326;8.430;2023-05-10T04:41:08;14.10;99.90
43673;DHT22;41723;49.326;8.430;2023-05-10T04:43:34;14.10;99.90
43673;DHT22;41723;49.326;8.430;2023-05-10T04:46:00;14.10;99.90
43673;DHT22;41723;49.326;8.430;2023-05-10T04:48:25;14.10;99.90
43673;DHT22;41723;49.326;8.430;2023-05-10T04:50:51;14.20;99.90
43673;DHT22;41723;49.326;8.430;2023-05-10T04:53:17;14.10;99.90
43673;DHT22;41723;49.326;8.430;2023-05-10T04:55:42;14.10;99.90
43673;DHT22;41723;49.326;8.430;2023-05-10T04:58:08;14.10;99.90
43673;DHT22;41723;49.326;8.430;2023-05-10T05:00:33;14.20;99.90
43673;DHT22;41723;49.326;8.430;2023-05-10T05:02:59;14.10;99.90
43673;DHT22;41723;49.326;8.430;2023-05-10T05:05:25;14.10;99.90
43673;DHT22;41723;49.326;8.430;2023-05-10T05:07:50;14.20;99.90
43673;DHT22;41723;49.326;8.430;2023-05-10T05:10:16;14.20;99.90
43673;DHT22;41723;49.326;8.430;2023-05-10T05:12:41;14.30;99.90
43673;DHT22;41723;49.326;8.430;2023-05-10T05:15:07;14.30;99.90
43673;DHT22;41723;49.326;8.430;2023-05-10T05:17:34;14.30;99.90
43673;DHT22;41723;49.326;8.430;2023-05-10T05:20:00;14.30;99.90
43673;DHT22;41723;49.326;8.430;2023-05-10T05:22:25;14.30;99.90
43673;DHT22;41723;49.326;8.430;2023-05-10T05:24:56;14.40;99.90
43673;DHT22;41723;49.326;8.430;2023-05-10T05:27:23;14.30;99.90
43673;DHT22;41723;49.326;8.430;2023-05-10T05:29:54;14.40;99.90
43673;DHT22;41723;49.326;8.430;2023-05-10T05:32:19;14.40;99.90
43673;DHT22;41723;49.326;8.430;2023-05-10T05:34:45;14.50;99.90
43673;DHT22;41723;49.326;8.430;2023-05-10T05:37:14;14.50;99.90
43673;DHT22;41723;49.326;8.430;2023-05-10T05:39:40;14.50;99.90
43673;DHT22;41723;49.326;8.430;2023-05-10T05:42:06;14.60;99.90
43673;DHT22;41723;49.326;8.430;2023-05-10T05:44:31;14.50;99.90
43673;DHT22;41723;49.326;8.430;2023-05-10T05:46:57;14.60;99.90
43673;DHT22;41723;49.326;8.430;2023-05-10T05:49:23;14.60;99.90
43673;DHT22;41723;49.326;8.430;2023-05-10T05:51:48;14.60;99.90
43673;DHT22;41723;49.326;8.430;2023-05-10T05:54:15;14.70;99.90
43673;DHT22;41723;49.326;8.430;2023-05-10T05:56:41;14.70;99.90
43673;DHT22;41723;49.326;8.430;2023-05-10T05:59:06;14.80;99.90
43673;DHT22;41723;49.326;8.430;2023-05-10T06:01:32;14.90;99.90
43673;DHT22;41723;49.326;8.430;2023-05-10T06:03:58;14.90;99.90
43673;DHT22;41723;49.326;8.430;2023-05-10T06:06:23;14.90;99.90
43673;DHT22;41723;49.326;8.430;2023-05-10T06:08:49;14.90;99.90
43673;DHT22;41723;49.326;8.430;2023-05-10T06:11:14;15.00;99.90
43673;DHT22;41723;49.326;8.430;2023-05-10T06:13:40;15.10;99.90
43673;DHT22;41723;49.326;8.430;2023-05-10T06:16:07;15.10;99.90
43673;DHT22;41723;49.326;8.430;2023-05-10T06:18:33;15.20;99.90
43673;DHT22;41723;49.326;8.430;2023-05-10T06:20:58;15.30;99.90
43673;DHT22;41723;49.326;8.430;2023-05-10T06:23:24;15.20;99.90
43673;DHT22;41723;49.326;8.430;2023-05-10T06:25:51;15.20;99.90
43673;DHT22;41723;49.326;8.430;2023-05-10T06:28:16;15.30;99.90
43673;DHT22;41723;49.326;8.430;2023-05-10T06:30:42;15.10;99.90
43673;DHT22;41723;49.326;8.430;2023-05-10T06:33:08;15.20;99.90
43673;DHT22;41723;49.326;8.430;2023-05-10T06:35:33;15.10;99.90
43673;DHT22;41723;49.326;8.430;2023-05-10T06:37:59;15.00;99.90
43673;DHT22;41723;49.326;8.430;2023-05-10T06:40:25;15.10;99.90
43673;DHT22;41723;49.326;8.430;2023-05-10T06:42:50;15.10;99.90
43673;DHT22;41723;49.326;8.430;2023-05-10T06:45:16;15.20;99.90
43673;DHT22;41723;49.326;8.430;2023-05-10T06:47:42;15.10;99.90
43673;DHT22;41723;49.326;8.430;2023-05-10T06:50:08;15.00;99.90
43673;DHT22;41723;49.326;8.430;2023-05-10T06:52:34;15.00;99.90
43673;DHT22;41723;49.326;8.430;2023-05-10T06:54:59;15.10;99.90
43673;DHT22;41723;49.326;8.430;2023-05-10T06:57:27;15.10;99.90
43673;DHT22;41723;49.326;8.430;2023-05-10T06:59:52;15.20;99.90
43673;DHT22;41723;49.326;8.430;2023-05-10T07:02:18;15.20;99.90
43673;DHT22;41723;49.326;8.430;2023-05-10T07:04:43;15.20;99.90
43673;DHT22;41723;49.326;8.430;2023-05-10T07:07:09;15.10;99.90
43673;DHT22;41723;49.326;8.430;2023-05-10T07:09:35;15.10;99.90
43673;DHT22;41723;49.326;8.430;2023-05-10T07:12:00;15.10;99.90
43673;DHT22;41723;49.326;8.430;2023-05-10T07:14:27;15.30;99.90
43673;DHT22;41723;49.326;8.430;2023-05-10T07:16:53;15.30;99.90
43673;DHT22;41723;49.326;8.430;2023-05-10T07:19:18;15.30;99.90
43673;DHT22;41723;49.326;8.430;2023-05-10T07:21:44;15.30;99.90
43673;DHT22;41723;49.326;8.430;2023-05-10T07:24:10;15.30;99.90
43673;DHT22;41723;49.326;8.430;2023-05-10T07:26:35;15.30;99.90
43673;DHT22;41723;49.326;8.430;2023-05-10T07:29:01;15.40;99.90
43673;DHT22;41723;49.326;8.430;2023-05-10T07:31:27;15.40;99.90
43673;DHT22;41723;49.326;8.430;2023-05-10T07:33:53;15.40;99.90
43673;DHT22;41723;49.326;8.430;2023-05-10T07:36:19;15.40;99.90
43673;DHT22;41723;49.326;8.430;2023-05-10T07:38:44;15.50;99.90
43673;DHT22;41723;49.326;8.430;2023-05-10T07:41:11;15.50;99.90
43673;DHT22;41723;49.326;8.430;2023-05-10T07:43:37;15.60;99.90
43673;DHT22;41723;49.326;8.430;2023-05-10T07:46:02;15.60;99.90
43673;DHT22;41723;49.326;8.430;2023-05-10T07:48:28;15.60;99.90
43673;DHT22;41723;49.326;8.430;2023-05-10T07:50:53;15.70;99.90
43673;DHT22;41723;49.326;8.430;2023-05-10T07:53:19;15.70;99.90
43673;DHT22;41723;49.326;8.430;2023-05-10T07:55:49;15.60;99.90
43673;DHT22;41723;49.326;8.430;2023-05-10T07:58:15;15.70;99.90
43673;DHT22;41723;49.326;8.430;2023-05-10T08:00:40;15.70;99.90
43673;DHT22;41723;49.326;8.430;2023-05-10T08:03:06;15.90;99.90
43673;DHT22;41723;49.326;8.430;2023-05-10T08:05:32;16.00;99.90
43673;DHT22;41723;49.326;8.430;2023-05-10T08:07:57;15.90;99.90
43673;DHT22;41723;49.326;8.430;2023-05-10T08:10:24;15.90;99.90
43673;DHT22;41723;49.326;8.430;2023-05-10T08:12:49;15.90;99.90
43673;DHT22;41723;49.326;8.430;2023-05-10T08:15:15;16.00;99.90
43673;DHT22;41723;49.326;8.430;2023-05-10T08:17:40;16.10;99.90
43673;DHT22;41723;49.326;8.430;2023-05-10T08:20:06;16.20;99.90
43673;DHT22;41723;49.326;8.430;2023-05-10T08:22:33;16.10;99.90
43673;DHT22;41723;49.326;8.430;2023-05-10T08:24:58;16.20;99.90
43673;DHT22;41723;49.326;8.430;2023-05-10T08:27:24;16.20;99.90
43673;DHT22;41723;49.326;8.430;2023-05-10T08:29:52;16.30;99.90
43673;DHT22;41723;49.326;8.430;2023-05-10T08:32:17;16.20;99.90
43673;DHT22;41723;49.326;8.430;2023-05-10T08:34:43;16.30;99.90
43673;DHT22;41723;49.326;8.430;2023-05-10T08:37:08;16.30;99.90
43673;DHT22;41723;49.326;8.430;2023-05-10T08:39:35;16.20;99.90
43673;DHT22;41723;49.326;8.430;2023-05-10T08:42:02;16.00;99.90
43673;DHT22;41723;49.326;8.430;2023-05-10T08:44:30;16.00;99.90
43673;DHT22;41723;49.326;8.430;2023-05-10T08:46:56;15.90;99.90
43673;DHT22;41723;49.326;8.430;2023-05-10T08:49:22;15.80;99.90
43673;DHT22;41723;49.326;8.430;2023-05-10T08:51:53;15.80;99.90
43673;DHT22;41723;49.326;8.430;2023-05-10T08:54:21;15.90;99.90
43673;DHT22;41723;49.326;8.430;2023-05-10T08:56:46;15.90;99.90
43673;DHT22;41723;49.326;8.430;2023-05-10T08:59:12;15.90;99.90
43673;DHT22;41723;49.326;8.430;2023-05-10T09:01:39;16.00;99.90
43673;DHT22;41723;49.326;8.430;2023-05-10T09:04:05;16.00;99.90
43673;DHT22;41723;49.326;8.430;2023-05-10T09:06:31;16.00;99.90
43673;DHT22;41723;49.326;8.430;2023-05-10T09:08:57;16.10;99.90
43673;DHT22;41723;49.326;8.430;2023-05-10T09:11:23;16.20;99.90
43673;DHT22;41723;49.326;8.430;2023-05-10T09:13:49;16.20;99.90
43673;DHT22;41723;49.326;8.430;2023-05-10T09:16:16;16.10;99.90
43673;DHT22;41723;49.326;8.430;2023-05-10T09:18:42;16.20;99.90
43673;DHT22;41723;49.326;8.430;2023-05-10T09:21:08;16.40;99.90
43673;DHT22;41723;49.326;8.430;2023-05-10T09:23:34;16.40;99.90
43673;DHT22;41723;49.326;8.430;2023-05-10T09:26:06;16.50;99.90
43673;DHT22;41723;49.326;8.430;2023-05-10T09:28:32;16.60;99.90
43673;DHT22;41723;49.326;8.430;2023-05-10T09:30:58;16.70;99.90
43673;DHT22;41723;49.326;8.430;2023-05-10T09:33:24;16.70;99.90
43673;DHT22;41723;49.326;8.430;2023-05-10T09:35:51;16.70;99.90
43673;DHT22;41723;49.326;8.430;2023-05-10T09:38:17;16.80;99.90
43673;DHT22;41723;49.326;8.430;2023-05-10T09:40:43;16.80;99.90
43673;DHT22;41723;49.326;8.430;2023-05-10T09:43:19;16.70;99.90
43673;DHT22;41723;49.326;8.430;2023-05-10T09:45:45;16.80;99.90
43673;DHT22;41723;49.326;8.430;2023-05-10T09:48:13;16.60;99.90
43673;DHT22;41723;49.326;8.430;2023-05-10T09:50:38;16.60;99.90
43673;DHT22;41723;49.326;8.430;2023-05-10T09:53:06;16.50;99.90
43673;DHT22;41723;49.326;8.430;2023-05-10T09:55:39;16.50;99.90
43673;DHT22;41723;49.326;8.430;2023-05-10T09:58:05;16.60;99.90
43673;DHT22;41723;49.326;8.430;2023-05-10T10:00:36;16.40;99.90
43673;DHT22;41723;49.326;8.430;2023-05-10T10:03:02;16.50;99.90
43673;DHT22;41723;49.326;8.430;2023-05-10T10:05:32;16.70;99.90
43673;DHT22;41723;49.326;8.430;2023-05-10T10:07:58;16.70;99.90
43673;DHT22;41723;49.326;8.430;2023-05-10T10:10:24;16.90;99.90
43673;DHT22;41723;49.326;8.430;2023-05-10T10:12:49;17.00;99.90
43673;DHT22;41723;49.326;8.430;2023-05-10T10:15:15;17.20;99.90
43673;DHT22;41723;49.326;8.430;2023-05-10T10:17:41;17.30;99.90
43673;DHT22;41723;49.326;8.430;2023-05-10T10:20:08;17.30;99.90
43673;DHT22;41723;49.326;8.430;2023-05-10T10:22:34;17.40;99.90
43673;DHT22;41723;49.326;8.430;2023-05-10T10:25:00;17.40;99.90
43673;DHT22;41723;49.326;8.430;2023-05-10T10:27:35;17.60;99.90
43673;DHT22;41723;49.326;8.430;2023-05-10T10:30:04;17.60;99.70
43673;DHT22;41723;49.326;8.430;2023-05-10T10:32:45;17.70;99.70
43673;DHT22;41723;49.326;8.430;2023-05-10T10:35:14;17.70;99.50
43673;DHT22;41723;49.326;8.430;2023-05-10T10:37:41;17.80;99.20
43673;DHT22;41723;49.326;8.430;2023-05-10T10:40:27;17.80;99.50
43673;DHT22;41723;49.326;8.430;2023-05-10T10:42:53;17.80;98.80
43673;DHT22;41723;49.326;8.430;2023-05-10T10:45:19;17.60;98.60
43673;DHT22;41723;49.326;8.430;2023-05-10T10:47:45;17.50;99.10
43673;DHT22;41723;49.326;8.430;2023-05-10T10:50:11;17.30;99.60
43673;DHT22;41723;49.326;8.430;2023-05-10T10:52:39;17.20;99.90
43673;DHT22;41723;49.326;8.430;2023-05-10T10:57:32;17.10;99.90
43673;DHT22;41723;49.326;8.430;2023-05-10T11:03:33;17.00;99.90
43673;DHT22;41723;49.326;8.430;2023-05-10T11:05:59;16.90;99.90
43673;DHT22;41723;49.326;8.430;2023-05-10T11:10:53;16.90;99.90
43673;DHT22;41723;49.326;8.430;2023-05-10T11:15:57;16.80;99.90
43673;DHT22;41723;49.326;8.430;2023-05-10T11:18:25;17.00;99.90
43673;DHT22;41723;49.326;8.430;2023-05-10T11:20:51;17.10;99.90
43673;DHT22;41723;49.326;8.430;2023-05-10T11:23:17;17.10;99.90
43673;DHT22;41723;49.326;8.430;2023-05-10T11:25:43;17.20;99.90
43673;DHT22;41723;49.326;8.430;2023-05-10T11:28:14;17.40;99.90
43673;DHT22;41723;49.326;8.430;2023-05-10T11:30:40;17.40;99.90
43673;DHT22;41723;49.326;8.430;2023-05-10T11:33:06;17.40;99.90
43673;DHT22;41723;49.326;8.430;2023-05-10T11:35:41;17.40;99.90
43673;DHT22;41723;49.326;8.430;2023-05-10T11:38:07;17.30;99.90
43673;DHT22;41723;49.326;8.430;2023-05-10T11:40:33;17.20;99.90
43673;DHT22;41723;49.326;8.430;2023-05-10T11:42:59;17.00;99.70
43673;DHT22;41723;49.326;8.430;2023-05-10T11:45:25;16.80;99.90
43673;DHT22;41723;49.326;8.430;2023-05-10T11:47:51;16.70;99.90
43673;DHT22;41723;49.326;8.430;2023-05-10T11:50:17;16.60;99.90
43673;DHT22;41723;49.326;8.430;2023-05-10T11:52:42;16.60;99.90
43673;DHT22;41723;49.326;8.430;2023-05-10T11:55:08;16.50;99.90
43673;DHT22;41723;49.326;8.430;2023-05-10T11:57:34;16.50;99.90
43673;DHT22;41723;49.326;8.430;2023-05-10T12:00:00;16.50;99.90
43673;DHT22;41723;49.326;8.430;2023-05-10T12:02:26;16.40;99.90
43673;DHT22;41723;49.326;8.430;2023-05-10T12:04:51;16.40;99.90
43673;DHT22;41723;49.326;8.430;2023-05-10T12:07:17;16.50;99.90
43673;DHT22;41723;49.326;8.430;2023-05-10T12:09:43;16.50;99.90
43673;DHT22;41723;49.326;8.430;2023-05-10T12:12:09;16.50;99.90
43673;DHT22;41723;49.326;8.430;2023-05-10T12:14:35;16.60;99.90
43673;DHT22;41723;49.326;8.430;2023-05-10T12:17:01;16.80;99.90
43673;DHT22;41723;49.326;8.430;2023-05-10T12:19:26;16.90;99.50
43673;DHT22;41723;49.326;8.430;2023-05-10T12:21:53;17.10;99.70
43673;DHT22;41723;49.326;8.430;2023-05-10T12:24:18;17.20;99.10
43673;DHT22;41723;49.326;8.430;2023-05-10T12:26:47;17.30;98.80
43673;DHT22;41723;49.326;8.430;2023-05-10T12:29:17;17.20;98.70
43673;DHT22;41723;49.326;8.430;2023-05-10T12:31:55;17.40;99.00
43673;DHT22;41723;49.326;8.430;2023-05-10T12:36:51;17.40;97.40
43673;DHT22;41723;49.326;8.430;2023-05-10T12:39:17;17.60;97.20
43673;DHT22;41723;49.326;8.430;2023-05-10T12:41:43;17.70;97.10
43673;DHT22;41723;49.326;8.430;2023-05-10T12:44:08;17.90;96.90
43673;DHT22;41723;49.326;8.430;2023-05-10T12:46:34;18.10;97.30
43673;DHT22;41723;49.326;8.430;2023-05-10T12:49:00;18.10;96.00
43673;DHT22;41723;49.326;8.430;2023-05-10T12:51:25;18.00;95.40
43673;DHT22;41723;49.326;8.430;2023-05-10T12:53:51;17.90;95.60
43673;DHT22;41723;49.326;8.430;2023-05-10T12:56:16;18.00;95.70
43673;DHT22;41723;49.326;8.430;2023-05-10T12:58:42;17.90;96.00
43673;DHT22;41723;49.326;8.430;2023-05-10T13:01:16;17.90;95.40
43673;DHT22;41723;49.326;8.430;2023-05-10T13:03:41;17.90;95.60
43673;DHT22;41723;49.326;8.430;2023-05-10T13:06:08;17.90;95.40
43673;DHT22;41723;49.326;8.430;2023-05-10T13:08:34;18.00;95.70
43673;DHT22;41723;49.326;8.430;2023-05-10T13:11:00;18.00;95.80
43673;DHT22;41723;49.326;8.430;2023-05-10T13:13:26;18.30;96.40
43673;DHT22;41723;49.326;8.430;2023-05-10T13:15:51;18.30;95.70
43673;DHT22;41723;49.326;8.430;2023-05-10T13:18:17;18.30;95.40
43673;DHT22;41723;49.326;8.430;2023-05-10T13:20:43;18.20;94.60
43673;DHT22;41723;49.326;8.430;2023-05-10T13:23:09;18.10;93.90
43673;DHT22;41723;49.326;8.430;2023-05-10T13:25:35;18.00;94.10
43673;DHT22;41723;49.326;8.430;2023-05-10T13:28:01;18.10;94.40
43673;DHT22;41723;49.326;8.430;2023-05-10T13:30:26;18.10;94.20
43673;DHT22;41723;49.326;8.430;2023-05-10T13:32:52;17.90;94.30
43673;DHT22;41723;49.326;8.430;2023-05-10T13:35:17;18.00;94.60
43673;DHT22;41723;49.326;8.430;2023-05-10T13:37:43;18.10;95.00
43673;DHT22;41723;49.326;8.430;2023-05-10T13:40:09;18.10;94.20
43673;DHT22;41723;49.326;8.430;2023-05-10T13:42:34;18.20;93.80
43673;DHT22;41723;49.326;8.430;2023-05-10T13:45:00;18.10;93.70
43673;DHT22;41723;49.326;8.430;2023-05-10T13:47:27;18.10;93.90
43673;DHT22;41723;49.326;8.430;2023-05-10T13:49:53;18.10;93.60
43673;DHT22;41723;49.326;8.430;2023-05-10T13:52:18;18.10;93.60
43673;DHT22;41723;49.326;8.430;2023-05-10T13:54:44;18.10;93.60
43673;DHT22;41723;49.326;8.430;2023-05-10T13:57:09;18.20;94.00
43673;DHT22;41723;49.326;8.430;2023-05-10T13:59:37;18.30;94.10
43673;DHT22;41723;49.326;8.430;2023-05-10T14:02:03;18.40;93.80
43673;DHT22;41723;49.326;8.430;2023-05-10T14:04:29;18.30;93.00
43673;DHT22;41723;49.326;8.430;2023-05-10T14:06:55;18.40;92.70
43673;DHT22;41723;49.326;8.430;2023-05-10T14:09:20;18.30;93.10
43673;DHT22;41723;49.326;8.430;2023-05-10T14:11:46;18.30;92.70
43673;DHT22;41723;49.326;8.430;2023-05-10T14:14:12;18.30;92.80
43673;DHT22;41723;49.326;8.430;2023-05-10T14:16:41;18.30;93.20
43673;DHT22;41723;49.326;8.430;2023-05-10T14:19:07;18.30;93.30
43673;DHT22;41723;49.326;8.430;2023-05-10T14:21:32;18.40;93.40
43673;DHT22;41723;49.326;8.430;2023-05-10T14:23:58;18.60;93.40
43673;DHT22;41723;49.326;8.430;2023-05-10T14:26:24;18.60;92.70
43673;DHT22;41723;49.326;8.430;2023-05-10T14:28:49;18.70;93.40
43673;DHT22;41723;49.326;8.430;2023-05-10T14:31:15;18.70;92.60
43673;DHT22;41723;49.326;8.430;2023-05-10T14:33:42;18.60;92.30
43673;DHT22;41723;49.326;8.430;2023-05-10T14:36:08;18.60;92.60
43673;DHT22;41723;49.326;8.430;2023-05-10T14:38:34;18.60;92.70
43673;DHT22;41723;49.326;8.430;2023-05-10T14:40:59;18.60;93.00
43673;DHT22;41723;49.326;8.430;2023-05-10T14:43:25;18.50;92.10
43673;DHT22;41723;49.326;8.430;2023-05-10T14:45:50;18.50;92.60
43673;DHT22;41723;49.326;8.430;2023-05-10T14:48:16;18.50;92.30
43673;DHT22;41723;49.326;8.430;2023-05-10T14:50:43;18.50;92.80
43673;DHT22;41723;49.326;8.430;2023-05-10T14:53:09;18.60;92.60
43673;DHT22;41723;49.326;8.430;2023-05-10T14:55:34;18.70;92.60
43673;DHT22;41723;49.326;8.430;2023-05-10T14:58:01;18.80;92.50
43673;DHT22;41723;49.326;8.430;2023-05-10T15:00:27;19.00;91.70
43673;DHT22;41723;49.326;8.430;2023-05-10T15:02:53;19.00;92.50
43673;DHT22;41723;49.326;8.430;2023-05-10T15:05:18;19.10;92.60
43673;DHT22;41723;49.326;8.430;2023-05-10T15:07:44;19.20;91.60
43673;DHT22;41723;49.326;8.430;2023-05-10T15:10:09;19.20;92.50
43673;DHT22;41723;49.326;8.430;2023-05-10T15:12:36;19.30;92.80
43673;DHT22;41723;49.326;8.430;2023-05-10T15:15:02;19.20;92.10
43673;DHT22;41723;49.326;8.430;2023-05-10T15:17:27;19.10;92.20
43673;DHT22;41723;49.326;8.430;2023-05-10T15:19:53;19.00;91.40
43673;DHT22;41723;49.326;8.430;2023-05-10T15:22:18;18.90;92.10
43673;DHT22;41723;49.326;8.430;2023-05-10T15:24:44;19.00;92.60
43673;DHT22;41723;49.326;8.430;2023-05-10T15:27:10;19.10;92.00
43673;DHT22;41723;49.326;8.430;2023-05-10T15:29:35;19.20;92.40
43673;DHT22;41723;49.326;8.430;2023-05-10T15:32:01;19.10;91.40
43673;DHT22;41723;49.326;8.430;2023-05-10T15:34:28;19.10;91.60
43673;DHT22;41723;49.326;8.430;2023-05-10T15:36:53;19.10;91.00
43673;DHT22;41723;49.326;8.430;2023-05-10T15:39:19;19.00;91.50
43673;DHT22;41723;49.326;8.430;2023-05-10T15:41:45;19.00;91.40
43673;DHT22;41723;49.326;8.430;2023-05-10T15:44:10;19.00;91.40
43673;DHT22;41723;49.326;8.430;2023-05-10T15:46:36;18.90;92.10
43673;DHT22;41723;49.326;8.430;2023-05-10T15:49:03;19.00;92.00
43673;DHT22;41723;49.326;8.430;2023-05-10T15:51:28;18.90;92.60
43673;DHT22;41723;49.326;8.430;2023-05-10T15:53:54;18.90;91.30
43673;DHT22;41723;49.326;8.430;2023-05-10T15:56:20;18.80;91.40
43673;DHT22;41723;49.326;8.430;2023-05-10T15:58:45;18.80;91.50
43673;DHT22;41723;49.326;8.430;2023-05-10T16:01:11;18.80;92.10